createdAt,value
2019-04-29T00:01:02.104Z,9.66
2019-04-29T00:04:05.972Z,9.66
2019-04-29T00:07:09.981Z,9.68
2019-04-29T00:10:17.098Z,9.67
2019-04-29T00:13:21.042Z,9.69
2019-04-29T00:16:35.932Z,9.70
2019-04-29T00:19:58.928Z,9.72
2019-04-29T00:23:02.831Z,9.69
2019-04-29T00:26:06.795Z,9.66
2019-04-29T00:29:10.685Z,9.61
2019-04-29T00:32:14.533Z,9.66
2019-04-29T00:35:18.536Z,9.70
2019-04-29T00:38:46.232Z,9.73
2019-04-29T00:42:24.194Z,9.72
2019-04-29T00:45:28.186Z,9.71
2019-04-29T00:48:32.099Z,9.64
2019-04-29T00:51:36.099Z,9.65
2019-04-29T00:54:48.794Z,9.64
2019-04-29T00:57:52.627Z,9.71
2019-04-29T01:00:56.600Z,9.69
2019-04-29T01:04:00.531Z,9.71
2019-04-29T01:07:05.090Z,9.76
2019-04-29T01:10:09.363Z,9.71
2019-04-29T01:13:13.297Z,9.75
2019-04-29T01:16:17.227Z,9.83
2019-04-29T01:19:21.163Z,9.84
2019-04-29T01:22:25.338Z,9.80
2019-04-29T01:25:29.257Z,9.76
2019-04-29T01:28:42.669Z,9.82
2019-04-29T01:31:46.636Z,9.94
2019-04-29T01:34:53.086Z,9.99
2019-04-29T01:37:56.922Z,9.90
2019-04-29T01:41:07.296Z,9.94
2019-04-29T01:44:11.322Z,9.95
2019-04-29T01:47:15.219Z,9.94
2019-04-29T01:50:19.091Z,10.00
2019-04-29T01:53:22.928Z,10.13
2019-04-29T01:56:26.920Z,10.09
2019-04-29T01:59:30.857Z,10.01
2019-04-29T02:02:34.662Z,10.04
2019-04-29T02:05:38.501Z,10.11
2019-04-29T02:08:42.414Z,10.12
2019-04-29T02:11:46.267Z,10.13
2019-04-29T02:14:50.116Z,10.09
2019-04-29T02:17:54.013Z,10.21
2019-04-29T02:20:57.815Z,10.19
2019-04-29T02:24:10.104Z,10.27
2019-04-29T02:27:13.965Z,10.24
2019-04-29T02:30:41.106Z,10.24
2019-04-29T02:33:44.953Z,10.13
2019-04-29T02:36:48.795Z,10.18
2019-04-29T02:39:59.300Z,10.22
2019-04-29T02:43:09.415Z,10.33
2019-04-29T02:46:13.392Z,10.44
2019-04-29T02:49:17.305Z,10.26
2019-04-29T02:52:21.194Z,10.16
2019-04-29T02:55:32.284Z,10.00
2019-04-29T02:58:51.265Z,10.05
2019-04-29T03:02:17.419Z,10.28
2019-04-29T03:05:26.699Z,10.17
2019-04-29T03:08:30.610Z,10.02
2019-04-29T03:11:34.635Z,10.02
2019-04-29T03:14:38.916Z,9.95
2019-04-29T03:17:43.220Z,9.94
2019-04-29T03:21:06.138Z,9.87
2019-04-29T03:24:10.057Z,9.90
2019-04-29T03:27:13.885Z,9.88
2019-04-29T03:30:17.863Z,9.82
2019-04-29T03:33:21.672Z,9.82
2019-04-29T03:36:25.618Z,9.96
2019-04-29T03:39:29.509Z,9.88
2019-04-29T03:42:33.495Z,9.92
2019-04-29T03:45:37.438Z,9.85
2019-04-29T03:48:41.287Z,9.74
2019-04-29T03:51:45.190Z,9.82
2019-04-29T03:54:49.036Z,9.84
2019-04-29T03:57:52.930Z,9.77
2019-04-29T04:01:07.624Z,9.71
2019-04-29T04:04:17.659Z,9.78
2019-04-29T04:07:38.664Z,9.74
2019-04-29T04:10:42.545Z,9.76
2019-04-29T04:13:46.391Z,9.84
2019-04-29T04:17:09.262Z,9.59
2019-04-29T04:20:13.493Z,9.77
2019-04-29T04:23:17.332Z,9.59
2019-04-29T04:26:21.143Z,9.60
2019-04-29T04:29:24.980Z,9.63
2019-04-29T04:32:28.808Z,9.55
2019-04-29T04:35:32.711Z,9.61
2019-04-29T04:38:36.545Z,9.57
2019-04-29T04:41:40.351Z,9.58
2019-04-29T04:44:50.432Z,9.64
2019-04-29T04:47:54.239Z,9.68
2019-04-29T04:50:58.142Z,9.73
2019-04-29T04:54:01.950Z,9.57
2019-04-29T04:57:06.007Z,9.58
2019-04-29T05:00:19.996Z,9.60
2019-04-29T05:03:22.233Z,9.62
2019-04-29T05:06:26.042Z,9.77
2019-04-29T05:09:29.934Z,9.60
2019-04-29T05:12:33.758Z,9.47
2019-04-29T05:15:37.599Z,9.36
2019-04-29T05:18:41.421Z,9.53
2019-04-29T05:21:45.240Z,9.56
2019-04-29T05:24:49.048Z,9.45
2019-04-29T05:27:52.871Z,9.49
2019-04-29T05:30:56.662Z,9.43
2019-04-29T05:34:00.481Z,9.38
2019-04-29T05:37:11.412Z,9.55
2019-04-29T05:40:34.308Z,9.40
2019-04-29T05:43:57.190Z,9.35
2019-04-29T05:47:17.823Z,9.47
2019-04-29T05:50:27.974Z,9.44
2019-04-29T05:53:38.738Z,9.30
2019-04-29T05:56:42.642Z,9.38
2019-04-29T05:59:47.842Z,9.45
2019-04-29T06:02:51.968Z,9.32
2019-04-29T06:05:55.845Z,9.37
2019-04-29T06:08:59.674Z,9.43
2019-04-29T06:12:03.552Z,9.51
2019-04-29T06:15:08.535Z,9.44
2019-04-29T06:18:12.346Z,9.55
2019-04-29T06:21:16.223Z,9.69
2019-04-29T06:24:20.021Z,9.51
2019-04-29T06:27:23.852Z,9.54
2019-04-29T06:30:27.668Z,9.51
2019-04-29T06:33:31.480Z,9.63
2019-04-29T06:36:35.461Z,9.57
2019-04-29T06:39:39.274Z,9.65
2019-04-29T06:42:43.106Z,9.75
2019-04-29T06:45:46.983Z,9.73
2019-04-29T06:48:50.820Z,9.66
2019-04-29T06:51:54.635Z,9.59
2019-04-29T06:54:58.537Z,9.82
2019-04-29T06:58:02.420Z,9.68
2019-04-29T07:01:06.297Z,9.73
2019-04-29T07:04:10.137Z,9.83
2019-04-29T07:07:13.963Z,9.87
2019-04-29T07:10:21.277Z,9.78
2019-04-29T07:13:24.644Z,9.94
2019-04-29T07:16:31.931Z,9.96
2019-04-29T07:19:34.086Z,10.02
2019-04-29T07:22:37.892Z,10.04
2019-04-29T07:25:41.686Z,10.15
2019-04-29T07:28:48.776Z,10.14
2019-04-29T07:31:51.104Z,10.36
2019-04-29T07:34:54.933Z,10.41
2019-04-29T07:37:58.762Z,10.46
2019-04-29T07:41:02.572Z,10.69
2019-04-29T07:44:06.532Z,10.72
2019-04-29T07:47:10.341Z,10.72
2019-04-29T07:50:14.747Z,10.81
2019-04-29T07:53:21.917Z,10.92
2019-04-29T07:56:24.227Z,10.98
2019-04-29T07:59:28.068Z,11.07
2019-04-29T08:02:31.874Z,11.06
2019-04-29T08:05:36.286Z,11.15
2019-04-29T08:08:53.949Z,11.28
2019-04-29T08:11:47.980Z,11.35
2019-04-29T08:14:57.811Z,11.49
2019-04-29T08:18:06.469Z,11.44
2019-04-29T08:21:04.658Z,11.48
2019-04-29T08:24:11.630Z,11.58
2019-04-29T08:27:14.087Z,11.78
2019-04-29T08:30:18.400Z,11.89
2019-04-29T08:33:22.314Z,11.82
2019-04-29T08:36:26.139Z,11.90
2019-04-29T08:39:31.169Z,11.93
2019-04-29T08:42:41.391Z,11.94
2019-04-29T08:45:48.444Z,11.89
2019-04-29T08:48:52.261Z,11.97
2019-04-29T08:51:56.141Z,12.03
2019-04-29T08:54:59.965Z,12.14
2019-04-29T08:58:06.891Z,12.09
2019-04-29T09:01:09.541Z,12.24
2019-04-29T09:04:13.367Z,12.26
2019-04-29T09:07:21.836Z,12.45
2019-04-29T09:10:22.789Z,12.44
2019-04-29T09:13:26.687Z,12.48
2019-04-29T09:16:30.498Z,12.67
2019-04-29T09:19:34.402Z,12.68
2019-04-29T09:22:40.903Z,12.69
2019-04-29T09:26:03.100Z,12.85
2019-04-29T09:29:25.304Z,12.71
2019-04-29T09:32:29.125Z,12.71
2019-04-29T09:35:33.820Z,12.66
2019-04-29T09:38:38.743Z,12.86
2019-04-29T09:41:58.755Z,12.82
2019-04-29T09:45:09.258Z,12.86
2019-04-29T09:48:13.135Z,13.14
2019-04-29T09:51:18.245Z,13.17
2019-04-29T09:54:22.625Z,13.34
2019-04-29T09:57:26.473Z,13.46
2019-04-29T10:01:01.591Z,13.82
2019-04-29T10:04:39.659Z,13.84
2019-04-29T10:07:43.828Z,14.08
2019-04-29T10:10:47.716Z,14.37
2019-04-29T10:13:51.538Z,14.72
2019-04-29T10:17:17.373Z,14.75
2019-04-29T10:20:26.035Z,14.90
2019-04-29T10:23:29.862Z,15.08
2019-04-29T10:26:33.767Z,15.12
2019-04-29T10:29:38.444Z,15.09
2019-04-29T10:32:43.599Z,15.20
2019-04-29T10:35:47.453Z,15.34
2019-04-29T10:38:53.102Z,15.20
2019-04-29T10:41:58.805Z,15.14
2019-04-29T10:45:15.149Z,15.14
2019-04-29T10:48:26.274Z,15.30
2019-04-29T10:51:30.160Z,15.31
2019-04-29T10:54:34.686Z,15.45
2019-04-29T10:57:38.537Z,15.58
2019-04-29T11:01:30.696Z,15.62
2019-04-29T11:04:36.074Z,15.61
2019-04-29T11:07:41.079Z,15.83
2019-04-29T11:10:44.987Z,15.87
2019-04-29T11:13:50.628Z,15.98
2019-04-29T11:16:54.383Z,15.92
2019-04-29T11:19:58.270Z,16.24
2019-04-29T11:23:16.601Z,16.21
2019-04-29T11:26:32.226Z,16.55
2019-04-29T11:29:36.143Z,16.55
2019-04-29T11:32:44.949Z,16.65
2019-04-29T11:35:59.202Z,16.75
2019-04-29T11:39:01.750Z,16.72
2019-04-29T11:42:08.616Z,16.80
2019-04-29T11:45:13.681Z,16.90
2019-04-29T11:48:17.860Z,17.03
2019-04-29T11:51:48.421Z,17.00
2019-04-29T11:54:41.148Z,17.19
2019-04-29T11:58:03.982Z,17.23
2019-04-29T12:01:37.475Z,17.26
2019-04-29T12:04:37.824Z,17.25
2019-04-29T12:07:41.879Z,17.41
2019-04-29T12:10:51.802Z,17.33
2019-04-29T12:14:09.475Z,17.34
2019-04-29T12:17:20.639Z,17.36
2019-04-29T12:20:30.056Z,17.39
2019-04-29T12:23:33.934Z,17.48
2019-04-29T12:26:43.179Z,17.44
2019-04-29T12:29:43.599Z,17.25
2019-04-29T12:33:01.306Z,17.18
2019-04-29T12:36:06.494Z,17.42
2019-04-29T12:39:43.079Z,17.50
2019-04-29T12:43:05.086Z,17.54
2019-04-29T12:46:13.923Z,17.53
2019-04-29T12:49:17.747Z,17.47
2019-04-29T12:52:21.826Z,17.52
2019-04-29T12:55:44.183Z,17.70
2019-04-29T12:58:38.437Z,17.67
2019-04-29T13:01:59.547Z,17.91
2019-04-29T13:05:25.977Z,17.61
2019-04-29T13:08:33.540Z,17.75
2019-04-29T13:11:48.016Z,17.77
2019-04-29T13:15:02.536Z,17.70
2019-04-29T13:18:13.008Z,17.87
2019-04-29T13:21:10.832Z,17.90
2019-04-29T13:24:24.271Z,18.15
2019-04-29T13:27:24.854Z,17.96
2019-04-29T13:30:26.328Z,17.99
2019-04-29T13:33:30.240Z,17.98
2019-04-29T13:36:34.252Z,18.04
2019-04-29T13:39:40.538Z,18.00
2019-04-29T13:42:48.483Z,18.08
2019-04-29T13:45:56.042Z,17.84
2019-04-29T13:49:13.579Z,17.71
2019-04-29T13:52:16.531Z,18.12
2019-04-29T13:55:46.551Z,18.10
2019-04-29T13:58:27.030Z,18.05
2019-04-29T14:01:57.810Z,18.27
2019-04-29T14:04:55.881Z,18.10
2019-04-29T14:07:59.773Z,18.15
2019-04-29T14:11:03.756Z,18.04
2019-04-29T14:14:07.585Z,18.26
2019-04-29T14:17:25.314Z,18.34
2019-04-29T14:20:17.545Z,18.48
2019-04-29T14:23:21.451Z,18.50
2019-04-29T14:26:25.291Z,18.45
2019-04-29T14:29:30.332Z,18.43
2019-04-29T14:32:38.062Z,18.34
2019-04-29T14:35:59.614Z,18.37
2019-04-29T14:39:05.927Z,18.37
2019-04-29T14:42:30.189Z,18.15
2019-04-29T14:45:48.647Z,18.30
2019-04-29T14:49:04.302Z,18.50
2019-04-29T14:52:08.389Z,18.37
2019-04-29T14:55:14.792Z,18.43
2019-04-29T14:58:17.381Z,18.39
2019-04-29T15:01:27.324Z,18.52
2019-04-29T15:04:34.642Z,18.64
2019-04-29T15:07:38.513Z,18.66
2019-04-29T15:10:43.192Z,18.83
2019-04-29T15:13:49.035Z,18.84
2019-04-29T15:16:59.025Z,18.91
2019-04-29T15:20:11.570Z,18.92
2019-04-29T15:23:27.939Z,19.09
2019-04-29T15:26:21.068Z,19.12
2019-04-29T15:29:24.900Z,19.22
2019-04-29T15:32:28.813Z,19.36
2019-04-29T15:35:32.667Z,19.70
2019-04-29T15:38:36.539Z,20.08
2019-04-29T15:41:40.483Z,20.14
2019-04-29T15:44:44.517Z,20.30
2019-04-29T15:47:48.369Z,20.61
2019-04-29T15:50:52.203Z,20.85
2019-04-29T15:53:56.098Z,20.78
2019-04-29T15:57:03.656Z,20.53
2019-04-29T16:00:20.618Z,20.50
2019-04-29T16:03:16.833Z,20.27
2019-04-29T16:06:46.141Z,20.25
2019-04-29T16:10:07.857Z,20.41
2019-04-29T16:13:12.149Z,20.13
2019-04-29T16:16:16.039Z,19.70
2019-04-29T16:19:19.951Z,19.30
2019-04-29T16:22:23.786Z,18.55
2019-04-29T16:25:27.582Z,18.17
2019-04-29T16:28:36.548Z,18.06
2019-04-29T16:31:37.012Z,17.76
2019-04-29T16:34:44.663Z,17.61
2019-04-29T16:37:46.653Z,17.60
2019-04-29T16:40:58.192Z,17.37
2019-04-29T16:44:02.034Z,17.25
2019-04-29T16:47:13.127Z,17.21
2019-04-29T16:50:13.478Z,17.12
2019-04-29T16:53:17.396Z,16.93
2019-04-29T16:56:21.516Z,16.93
2019-04-29T16:59:25.310Z,16.71
2019-04-29T17:02:29.108Z,16.78
2019-04-29T17:05:32.919Z,16.89
2019-04-29T17:09:02.906Z,16.61
2019-04-29T17:12:01.814Z,16.48
2019-04-29T17:18:12.215Z,16.61
2019-04-29T17:21:16.044Z,16.61
2019-04-29T17:24:19.877Z,16.33
2019-04-29T17:27:35.091Z,16.29
2019-04-29T17:31:12.227Z,16.17
2019-04-29T17:34:54.806Z,16.05
2019-04-29T17:35:18.696Z,16.39
2019-04-29T17:37:30.937Z,16.12
2019-04-29T17:40:37.299Z,16.03
2019-04-29T17:43:52.196Z,15.93
2019-04-29T17:47:11.446Z,15.95
2019-04-29T17:50:32.774Z,15.87
2019-04-29T17:53:40.909Z,15.81
2019-04-29T17:57:10.207Z,15.72
2019-04-29T18:00:18.551Z,15.36
2019-04-29T18:03:41.404Z,15.17
2019-04-29T18:07:08.165Z,15.22
2019-04-29T18:10:17.659Z,15.22
2019-04-29T18:13:23.749Z,15.14
2019-04-29T18:16:30.455Z,15.16
2019-04-29T18:19:42.238Z,14.86
2019-04-29T18:23:00.195Z,14.76
2019-04-29T18:26:07.433Z,14.45
2019-04-29T18:29:11.509Z,14.25
2019-04-29T18:32:15.622Z,14.22
2019-04-29T18:35:19.589Z,14.27
2019-04-29T18:38:26.258Z,14.10
2019-04-29T18:41:28.971Z,13.96
2019-04-29T18:44:32.919Z,13.76
2019-04-29T18:47:38.773Z,13.86
2019-04-29T18:50:42.435Z,13.84
2019-04-29T18:53:47.184Z,13.65
2019-04-29T18:56:51.216Z,13.47
2019-04-29T18:59:55.140Z,13.53
2019-04-29T19:03:01.044Z,13.34
2019-04-29T19:06:10.264Z,13.19
2019-04-29T19:09:17.802Z,13.02
2019-04-29T19:12:16.889Z,12.83
2019-04-29T19:15:20.693Z,12.66
2019-04-29T19:18:25.477Z,12.54
2019-04-29T19:21:31.481Z,12.43
2019-04-29T19:24:36.587Z,12.34
2019-04-29T19:27:40.939Z,12.25
2019-04-29T19:30:45.203Z,12.17
2019-04-29T19:33:49.148Z,12.03
2019-04-29T19:36:57.992Z,11.91
2019-04-29T19:39:59.656Z,11.87
2019-04-29T19:43:03.488Z,11.78
2019-04-29T19:46:07.324Z,11.70
2019-04-29T19:49:11.168Z,11.59
2019-04-29T19:52:19.012Z,11.50
2019-04-29T19:55:20.652Z,11.42
2019-04-29T19:58:29.541Z,11.32
2019-04-29T20:01:32.240Z,11.19
2019-04-29T20:04:44.377Z,11.04
2019-04-29T20:07:50.732Z,10.88
2019-04-29T20:10:58.124Z,10.85
2019-04-29T20:14:04.441Z,10.71
2019-04-29T20:17:19.086Z,10.71
2019-04-29T20:20:35.040Z,10.71
2019-04-29T20:23:39.258Z,10.65
2019-04-29T20:26:44.167Z,10.58
2019-04-29T20:29:48.040Z,10.47
2019-04-29T20:32:52.021Z,10.30
2019-04-29T20:36:01.630Z,10.15
2019-04-29T20:39:01.610Z,9.99
2019-04-29T20:42:10.276Z,9.86
2019-04-29T20:45:11.749Z,9.75
2019-04-29T20:48:19.474Z,9.70
2019-04-29T20:51:23.353Z,9.61
2019-04-29T20:54:28.627Z,9.47
2019-04-29T20:57:32.513Z,9.42
2019-04-29T21:00:38.809Z,9.35
2019-04-29T21:03:48.449Z,9.26
2019-04-29T21:06:59.851Z,9.19
2019-04-29T21:09:55.774Z,9.12
2019-04-29T21:13:22.506Z,9.00
2019-04-29T21:16:30.869Z,8.94
2019-04-29T21:19:34.940Z,8.88
2019-04-29T21:22:38.864Z,8.80
2019-04-29T21:25:42.709Z,8.71
2019-04-29T21:28:47.085Z,8.63
2019-04-29T21:31:58.457Z,8.55
2019-04-29T21:35:05.812Z,8.47
2019-04-29T21:38:30.448Z,8.40
2019-04-29T21:41:45.916Z,8.37
2019-04-29T21:44:49.764Z,8.33
2019-04-29T21:47:54.623Z,8.28
2019-04-29T21:50:58.747Z,8.19
2019-04-29T21:54:02.636Z,8.13
2019-04-29T21:57:06.533Z,8.12
2019-04-29T22:00:11.162Z,8.04
2019-04-29T22:03:15.456Z,7.95
2019-04-29T22:06:19.655Z,7.88
2019-04-29T22:09:34.054Z,7.87
2019-04-29T22:12:29.025Z,7.90
2019-04-29T22:15:38.209Z,7.88
2019-04-29T22:18:38.543Z,7.83
2019-04-29T22:21:42.567Z,7.78
2019-04-29T22:24:46.404Z,7.69
2019-04-29T22:27:50.320Z,7.66
2019-04-29T22:30:55.150Z,7.68
2019-04-29T22:33:59.670Z,7.60
2019-04-29T22:37:05.377Z,7.52
2019-04-29T22:40:09.515Z,7.49
2019-04-29T22:43:29.116Z,7.52
2019-04-29T22:46:32.979Z,7.46
2019-04-29T22:49:36.881Z,7.36
2019-04-29T22:52:40.753Z,7.29
2019-04-29T22:55:45.248Z,7.23
2019-04-29T22:58:49.116Z,7.15
2019-04-29T23:01:52.899Z,7.08
2019-04-29T23:04:56.731Z,7.01
2019-04-29T23:08:01.471Z,7.00
2019-04-29T23:11:05.552Z,6.92
2019-04-29T23:14:10.195Z,6.82
2019-04-29T23:17:15.779Z,6.79
2019-04-29T23:20:37.425Z,6.80
2019-04-29T23:23:45.575Z,6.69
2019-04-29T23:26:49.394Z,6.68
2019-04-29T23:29:53.256Z,6.69
2019-04-29T23:32:57.397Z,6.65
2019-04-29T23:36:01.292Z,6.60
2019-04-29T23:39:06.300Z,6.63
2019-04-29T23:42:12.135Z,6.65
2019-04-29T23:45:20.897Z,6.59
2019-04-29T23:48:23.890Z,6.56
2019-04-29T23:51:33.766Z,6.50
2019-04-29T23:54:43.746Z,6.54
2019-04-29T23:58:02.936Z,6.44
